Impacts TAF Board
For situational awareness. Not to be used for flight planning purposes.
IDs:

PABE - Bethel Arpt, AK, US

Issued at 1743 UTC 21 May 2022
Updated at 2223 UTC 21 May 2022
Potential Impact None Slight Moderate High
Time2153Z 21/23Z 22/00Z 22/01Z 22/02Z 22/03Z 22/04Z 22/05Z 22/06Z 22/07Z 22/08Z 22/09Z 22/10Z 22/11Z>>
Type OBS PRVL PRVL PRVL PRVL PRVL PRVL PRVL PRVL PRVL PRVL PRVL PRVL PRVL
VIS 10 >6 >6 >6 >6 >6 >6 >6 >6 >6 >6 >6 >6 >6
CIG -- 120 120 120 120 120 120 120 120 120 200 200 200 200
Cover CLR BKN BKN BKN BKN BKN BKN BKN BKN BKN BKN BKN BKN BKN
FltCat VFR VFR VFR VFR VFR VFR VFR VFR VFR VFR VFR VFR VFR VFR
WX -- -- -- -- -- -- -- -- -- -- -- -- -- --
WDir 100 70 70 70 70 70 70 70 70 70 80 80 80 80
WSpd 21 17 17 17 17 17 17 17 17 17 10 10 10 10
WGst 25 27 27 27 27 27 27 27 27 27 -- -- -- --
WSHgt -- -- -- -- -- -- -- -- -- -- -- -- -- --
WSDir -- -- -- -- -- -- -- -- -- -- -- -- -- --
WSSpd -- -- -- -- -- -- -- -- -- -- -- -- -- --
Raw TAF
PABE 211743Z 2118/2218 09010KT P6SM OVC050
  FM212100 07017G27KT P6SM SCT070 BKN120
  FM220800 08010KT P6SM SCT120 BKN200


Raw METAR
PABE 212153Z 10021G25KT 10SM CLR 17/M04 A2995 RMK AO2 PK WND 11028/2142 SLP142 T01721039
PABE 212053Z 07017G24KT 10SM CLR 16/M03 A2996 RMK AO2 SLP148 T01561033 58012
PABE 211953Z 05009KT 10SM OVC110 14/M01 A2999 RMK AO2 SLP156 T01391006

METAR Board
Radar Display
Forecast Discussion
For situational awareness. Not to be used for flight planning purposes.